Time;durP1;ratioP1;P1;durP2;ratioP2;P2;SDS_P1;SDS_P2;PMS_P1;PMS_P2;Temp;Humidity;BMP_temperature;BMP_pressure;BME280_temperature;BME280_humidity;BME280_pressure;Samples;Min_cycle;Max_cycle;Signal;HPM_P1;HPM_P2
2022/10/29 00:02:19;;;;;;;23.47;4.73;;;14.50;99.90;;;;;;5092505;28;20668;-76
2022/10/29 00:04:44;;;;;;;15.30;4.03;;;14.40;99.90;;;;;;5091235;28;20308;-75
2022/10/29 00:07:10;;;;;;;17.03;4.83;;;14.20;99.90;;;;;;5091332;28;20206;-76
2022/10/29 00:09:36;;;;;;;23.43;4.07;;;14.10;99.90;;;;;;5090963;28;20208;-76
2022/10/29 00:12:01;;;;;;;9.43;3.63;;;14.10;99.90;;;;;;5074285;28;20278;-76
2022/10/29 00:14:27;;;;;;;13.43;4.10;;;14.00;99.90;;;;;;5080523;28;20211;-76
2022/10/29 00:16:53;;;;;;;16.40;4.07;;;14.00;99.90;;;;;;5097740;28;20209;-77
2022/10/29 00:19:18;;;;;;;16.63;4.20;;;14.10;99.90;;;;;;5097862;28;20189;-76
2022/10/29 00:21:44;;;;;;;13.87;4.00;;;14.20;99.90;;;;;;5116017;28;20178;-74
2022/10/29 00:24:10;;;;;;;11.70;3.97;;;14.50;99.90;;;;;;5116336;28;20925;-75
2022/10/29 00:26:35;;;;;;;13.30;3.20;;;14.60;99.90;;;;;;5115974;28;20276;-77
2022/10/29 00:29:01;;;;;;;8.60;3.33;;;14.60;99.90;;;;;;5116061;28;20467;-76
2022/10/29 00:31:27;;;;;;;11.23;3.50;;;14.90;99.90;;;;;;5116041;28;20193;-76
2022/10/29 00:33:53;;;;;;;15.53;4.50;;;14.80;99.90;;;;;;5097574;28;20942;-76
2022/10/29 00:36:22;;;;;;;15.63;4.20;;;14.70;99.90;;;;;;5116139;28;20193;-76
2022/10/29 00:38:48;;;;;;;7.50;4.03;;;14.40;99.90;;;;;;5080835;28;20421;-77
2022/10/29 00:41:17;;;;;;;13.00;3.73;;;14.30;99.90;;;;;;5116027;28;20967;-75
2022/10/29 00:43:46;;;;;;;9.33;3.67;;;14.20;99.90;;;;;;5098053;28;20419;-76
2022/10/29 00:46:24;;;;;;;16.37;3.93;;;14.10;99.90;;;;;;5097421;28;20436;-76
2022/10/29 00:48:53;;;;;;;7.80;3.47;;;14.10;99.90;;;;;;5115851;28;20443;-76
2022/10/29 00:51:19;;;;;;;14.07;3.60;;;14.20;99.90;;;;;;5117114;27;20415;-76
2022/10/29 00:53:50;;;;;;;16.33;4.10;;;14.30;99.90;;;;;;5082436;28;20431;-76
2022/10/29 00:56:16;;;;;;;16.03;4.00;;;14.20;99.90;;;;;;5116365;28;20439;-76
2022/10/29 00:58:42;;;;;;;19.87;3.90;;;14.20;99.90;;;;;;5098546;28;20456;-76
2022/10/29 01:01:08;;;;;;;11.73;4.30;;;14.20;99.90;;;;;;5081946;28;20438;-77
2022/10/29 01:03:34;;;;;;;19.63;4.10;;;14.10;99.90;;;;;;5117123;28;20803;-77
2022/10/29 01:06:02;;;;;;;7.83;4.27;;;14.10;99.90;;;;;;5098490;28;20205;-77
2022/10/29 01:08:27;;;;;;;9.37;4.23;;;14.00;99.90;;;;;;5116879;28;20257;-77
2022/10/29 01:11:08;;;;;;;9.23;4.10;;;14.10;99.90;;;;;;5098521;28;20542;-78
2022/10/29 01:13:46;;;;;;;8.20;3.27;;;14.00;99.90;;;;;;5097729;28;20178;-78
2022/10/29 01:16:33;;;;;;;17.07;3.87;;;13.90;99.90;;;;;;5116234;28;20434;-78
2022/10/29 01:19:12;;;;;;;15.13;4.23;;;13.80;99.90;;;;;;5097494;28;20408;-77
2022/10/29 01:21:57;;;;;;;14.70;4.23;;;13.80;99.90;;;;;;5116336;28;20400;-76
2022/10/29 01:24:31;;;;;;;9.67;4.07;;;13.70;99.90;;;;;;5114147;28;20402;-76
2022/10/29 01:27:21;;;;;;;17.10;4.20;;;13.80;99.90;;;;;;5112543;28;20430;-77
2022/10/29 01:30:03;;;;;;;12.13;3.53;;;13.70;99.90;;;;;;5094146;28;20435;-75
2022/10/29 01:32:46;;;;;;;13.57;3.00;;;13.70;99.90;;;;;;5112543;28;20460;-77
2022/10/29 01:35:30;;;;;;;12.10;3.50;;;13.60;99.90;;;;;;5113128;28;20745;-76
2022/10/29 01:38:36;;;;;;;14.70;3.90;;;13.80;99.90;;;;;;5094143;28;20455;-76
2022/10/29 01:41:20;;;;;;;11.13;3.10;;;13.80;99.90;;;;;;5112668;28;20974;-75
2022/10/29 01:44:03;;;;;;;12.90;3.60;;;13.90;99.90;;;;;;5112519;28;20400;-75
2022/10/29 01:47:01;;;;;;;12.50;3.67;;;13.90;99.90;;;;;;5112452;28;20960;-75
2022/10/29 01:49:48;;;;;;;19.67;3.90;;;13.90;99.90;;;;;;5099596;28;20485;-76
2022/10/29 01:52:16;;;;;;;11.60;3.40;;;14.00;99.90;;;;;;5077122;28;20428;-76
2022/10/29 01:54:44;;;;;;;17.53;4.50;;;13.90;99.90;;;;;;5093338;28;20428;-76
2022/10/29 01:57:30;;;;;;;20.63;4.70;;;13.90;99.90;;;;;;5093212;28;20436;-77
2022/10/29 02:00:00;;;;;;;10.60;4.23;;;14.00;99.90;;;;;;5076266;28;20411;-76
2022/10/29 02:02:36;;;;;;;12.27;3.77;;;14.10;99.90;;;;;;5111514;28;20427;-76
2022/10/29 02:05:17;;;;;;;22.53;4.10;;;14.20;99.90;;;;;;5111887;28;20427;-76
2022/10/29 02:07:52;;;;;;;14.90;4.20;;;14.20;99.90;;;;;;5093960;28;20500;-75
2022/10/29 02:10:34;;;;;;;21.27;5.10;;;14.20;99.90;;;;;;5093585;28;20446;-76
2022/10/29 02:13:00;;;;;;;10.80;3.83;;;14.20;99.90;;;;;;5111861;28;20408;-76
2022/10/29 02:15:41;;;;;;;14.57;3.30;;;14.30;99.90;;;;;;5112050;28;20468;-76
2022/10/29 02:18:07;;;;;;;7.33;3.30;;;14.30;99.90;;;;;;5094486;28;20467;-77
2022/10/29 02:20:34;;;;;;;15.03;4.10;;;14.30;99.90;;;;;;5111913;28;20905;-76
2022/10/29 02:22:59;;;;;;;11.77;3.80;;;14.30;99.90;;;;;;5111831;28;20502;-76
2022/10/29 02:25:26;;;;;;;13.07;4.10;;;14.30;99.90;;;;;;5111674;28;20903;-77
2022/10/29 02:27:51;;;;;;;9.43;3.93;;;14.20;99.90;;;;;;5111632;28;20441;-76
2022/10/29 02:30:17;;;;;;;10.00;3.93;;;14.20;99.90;;;;;;5093382;28;21202;-77
2022/10/29 02:32:43;;;;;;;21.17;5.67;;;14.10;99.90;;;;;;5112116;28;20640;-82
2022/10/29 02:35:09;;;;;;;13.43;4.47;;;14.20;99.90;;;;;;5093875;28;20875;-76
2022/10/29 02:37:35;;;;;;;11.50;3.77;;;14.10;99.90;;;;;;5111367;28;20201;-76
2022/10/29 02:40:01;;;;;;;13.20;4.13;;;14.10;99.90;;;;;;5110976;28;20411;-77
2022/10/29 02:42:26;;;;;;;9.10;3.83;;;14.20;99.90;;;;;;5110462;28;20510;-74
2022/10/29 02:44:52;;;;;;;14.03;3.53;;;14.10;99.90;;;;;;5092107;28;20658;-75
2022/10/29 02:47:18;;;;;;;11.53;3.57;;;14.20;99.90;;;;;;5110428;28;20204;-76
2022/10/29 02:49:44;;;;;;;19.50;4.17;;;14.20;99.90;;;;;;5110199;28;20201;-75
2022/10/29 02:52:09;;;;;;;11.30;3.50;;;14.30;99.90;;;;;;5110384;28;20426;-76
2022/10/29 02:54:35;;;;;;;9.40;3.40;;;14.30;99.90;;;;;;5110315;28;20170;-76
2022/10/29 02:57:01;;;;;;;8.70;3.47;;;14.30;99.90;;;;;;5110309;28;20243;-76
2022/10/29 02:59:26;;;;;;;16.17;4.00;;;14.40;99.90;;;;;;5091907;28;20190;-76
2022/10/29 03:01:52;;;;;;;14.47;5.00;;;14.40;99.90;;;;;;5110205;28;20250;-76
2022/10/29 03:04:17;;;;;;;22.03;4.40;;;14.40;99.90;;;;;;5091846;28;20645;-75
2022/10/29 03:06:43;;;;;;;19.20;3.30;;;14.40;99.90;;;;;;5092019;28;20201;-76
2022/10/29 03:09:09;;;;;;;10.30;3.80;;;14.40;99.90;;;;;;5091878;28;20214;-76
2022/10/29 03:11:34;;;;;;;9.30;3.80;;;14.40;99.90;;;;;;5110374;28;20178;-78
2022/10/29 03:14:00;;;;;;;17.37;3.57;;;14.40;99.90;;;;;;5110506;28;20734;-76
2022/10/29 03:16:25;;;;;;;7.53;3.80;;;14.40;99.90;;;;;;5110588;28;20194;-77
2022/10/29 03:18:51;;;;;;;19.93;4.23;;;14.50;99.90;;;;;;5110754;28;20706;-76
2022/10/29 03:21:16;;;;;;;13.10;3.47;;;14.60;99.90;;;;;;5110685;28;20671;-76
2022/10/29 03:23:42;;;;;;;7.20;3.20;;;14.60;99.90;;;;;;5110626;28;20174;-76
2022/10/29 03:26:09;;;;;;;9.90;3.40;;;14.60;99.90;;;;;;5110542;28;20200;-76
2022/10/29 03:28:35;;;;;;;10.53;3.90;;;14.60;99.90;;;;;;5110329;28;20174;-77
2022/10/29 03:31:00;;;;;;;14.33;4.00;;;14.60;99.90;;;;;;5092054;28;20528;-76
2022/10/29 03:33:26;;;;;;;15.30;3.70;;;14.50;99.90;;;;;;5110388;28;20198;-77
2022/10/29 03:35:59;;;;;;;14.63;4.53;;;14.50;99.90;;;;;;5110566;28;20179;-77
2022/10/29 03:38:25;;;;;;;13.13;3.80;;;14.50;99.90;;;;;;5110372;28;20235;-76
2022/10/29 03:40:51;;;;;;;13.60;4.67;;;14.50;99.90;;;;;;5092338;28;20420;-77
2022/10/29 03:43:17;;;;;;;9.33;3.53;;;14.50;99.90;;;;;;5092106;28;20854;-77
2022/10/29 03:45:43;;;;;;;21.83;4.33;;;14.50;99.90;;;;;;5091888;28;20668;-78
2022/10/29 03:48:08;;;;;;;15.83;5.03;;;14.40;99.90;;;;;;5109631;28;20540;-76
2022/10/29 03:50:34;;;;;;;10.30;3.47;;;14.40;99.90;;;;;;5110037;28;20257;-75
2022/10/29 03:53:00;;;;;;;14.43;3.67;;;14.40;99.90;;;;;;5110218;28;20178;-76
2022/10/29 03:55:27;;;;;;;8.90;3.87;;;14.40;99.90;;;;;;5091799;28;20284;-76
2022/10/29 03:57:53;;;;;;;12.80;3.80;;;14.40;99.90;;;;;;5092190;28;20319;-77
2022/10/29 04:00:19;;;;;;;10.87;3.90;;;14.40;99.90;;;;;;5110129;28;20917;-75
2022/10/29 04:02:45;;;;;;;14.00;4.40;;;14.30;99.90;;;;;;5110000;28;20471;-75
2022/10/29 04:05:10;;;;;;;13.90;3.60;;;14.30;99.90;;;;;;5110371;28;20762;-76
2022/10/29 04:07:36;;;;;;;12.93;4.40;;;14.30;99.90;;;;;;5091818;28;20646;-76
2022/10/29 04:10:01;;;;;;;15.20;4.13;;;14.40;99.90;;;;;;5111405;28;20258;-77
2022/10/29 04:12:27;;;;;;;15.80;4.30;;;14.30;99.90;;;;;;5109850;28;20182;-77
2022/10/29 04:14:53;;;;;;;9.50;4.00;;;14.30;99.90;;;;;;5091934;28;20840;-76
2022/10/29 04:17:18;;;;;;;10.93;3.90;;;14.30;99.90;;;;;;5110072;28;20193;-76
2022/10/29 04:19:44;;;;;;;17.40;3.80;;;14.30;99.90;;;;;;5075055;28;20182;-76
2022/10/29 04:22:09;;;;;;;18.93;5.00;;;14.30;99.90;;;;;;5110173;28;20193;-77
2022/10/29 04:24:35;;;;;;;9.87;4.00;;;14.40;99.90;;;;;;5110209;28;20737;-75
2022/10/29 04:27:00;;;;;;;12.27;3.90;;;14.50;99.90;;;;;;5110022;28;20217;-76
2022/10/29 04:29:26;;;;;;;10.43;3.80;;;14.50;99.90;;;;;;5091698;28;20207;-76
2022/10/29 04:31:51;;;;;;;18.30;3.80;;;14.50;99.90;;;;;;5091804;28;20233;-77
2022/10/29 04:34:17;;;;;;;13.97;4.10;;;14.50;99.90;;;;;;5109833;28;20210;-77
2022/10/29 04:36:43;;;;;;;13.57;4.20;;;14.50;99.90;;;;;;5109589;28;20210;-78
2022/10/29 04:39:08;;;;;;;17.47;5.30;;;14.50;99.90;;;;;;5075082;28;20193;-76
2022/10/29 04:41:34;;;;;;;12.77;4.30;;;14.40;99.90;;;;;;5109700;28;20187;-76
2022/10/29 04:44:00;;;;;;;20.00;4.40;;;14.40;99.90;;;;;;5109840;28;20187;-77
2022/10/29 04:46:26;;;;;;;11.50;4.33;;;14.50;99.90;;;;;;5074502;28;20291;-77
2022/10/29 04:48:52;;;;;;;19.50;7.90;;;14.30;99.90;;;;;;5091624;28;20467;-78
2022/10/29 04:51:23;;;;;;;19.33;7.53;;;14.30;99.90;;;;;;5109722;28;20232;-77
2022/10/29 04:53:49;;;;;;;15.13;5.33;;;14.30;99.90;;;;;;5091389;28;20178;-76
2022/10/29 04:56:15;;;;;;;7.97;4.57;;;14.30;99.90;;;;;;5109550;28;20451;-76
2022/10/29 04:58:40;;;;;;;10.70;3.90;;;14.30;99.90;;;;;;5092247;28;20203;-77
2022/10/29 05:01:06;;;;;;;16.27;3.60;;;14.50;99.90;;;;;;5094563;28;20488;-76
2022/10/29 05:03:32;;;;;;;14.97;4.60;;;14.40;99.90;;;;;;5095387;28;20198;-77
2022/10/29 05:06:01;;;;;;;18.33;4.20;;;14.40;99.90;;;;;;5094770;28;20190;-76
2022/10/29 05:08:26;;;;;;;7.90;4.17;;;14.40;99.90;;;;;;5095028;28;20419;-77
2022/10/29 05:10:52;;;;;;;18.03;5.53;;;14.40;99.90;;;;;;5095203;28;20459;-76
2022/10/29 05:13:17;;;;;;;16.10;3.77;;;14.40;99.90;;;;;;5113720;28;20727;-76
2022/10/29 05:15:52;;;;;;;10.10;4.10;;;14.30;99.90;;;;;;5095290;28;20216;-76
2022/10/29 05:18:17;;;;;;;14.13;4.10;;;14.30;99.90;;;;;;5113722;28;20162;-77
2022/10/29 05:20:43;;;;;;;13.73;4.50;;;14.20;99.90;;;;;;5113900;28;20433;-77
2022/10/29 05:23:10;;;;;;;18.30;5.90;;;14.10;99.90;;;;;;5113352;28;20268;-77
2022/10/29 05:25:38;;;;;;;10.60;4.63;;;14.10;99.90;;;;;;5113392;28;20420;-77
2022/10/29 05:28:17;;;;;;;9.27;4.53;;;14.00;99.90;;;;;;5113213;28;20435;-76
2022/10/29 05:30:44;;;;;;;12.93;4.40;;;14.00;99.90;;;;;;5112608;28;20512;-78
2022/10/29 05:33:13;;;;;;;13.70;5.20;;;14.00;99.90;;;;;;5094054;28;20424;-76
2022/10/29 05:35:39;;;;;;;8.67;4.47;;;14.00;99.90;;;;;;5112258;28;20472;-77
2022/10/29 05:38:05;;;;;;;12.97;4.50;;;13.90;99.90;;;;;;5112072;28;20530;-76
2022/10/29 05:40:31;;;;;;;7.87;4.03;;;13.90;99.90;;;;;;5112301;28;20189;-76
2022/10/29 05:42:57;;;;;;;14.97;4.60;;;14.00;99.90;;;;;;5112310;28;20427;-76
2022/10/29 05:45:22;;;;;;;17.70;5.20;;;14.00;99.90;;;;;;5111902;28;20497;-76
2022/10/29 05:47:53;;;;;;;7.97;3.97;;;13.90;99.90;;;;;;5112585;28;20285;-76
2022/10/29 05:50:19;;;;;;;12.90;4.70;;;13.80;99.90;;;;;;5112420;28;20682;-78
2022/10/29 05:52:56;;;;;;;12.70;3.80;;;13.80;99.90;;;;;;5093973;28;20423;-78
2022/10/29 05:55:21;;;;;;;13.10;4.17;;;13.80;99.90;;;;;;5112089;28;20314;-79
2022/10/29 05:57:47;;;;;;;12.17;4.53;;;13.70;99.90;;;;;;5076758;28;20530;-79
2022/10/29 06:00:13;;;;;;;16.33;4.33;;;13.70;99.90;;;;;;5078150;28;20186;-79
2022/10/29 06:02:42;;;;;;;10.10;4.27;;;13.70;99.90;;;;;;5111875;28;20600;-79
2022/10/29 06:05:07;;;;;;;10.40;5.20;;;13.60;99.90;;;;;;5093262;28;20940;-79
2022/10/29 06:07:33;;;;;;;14.63;3.97;;;13.60;99.90;;;;;;5076606;28;20647;-80
2022/10/29 06:09:59;;;;;;;13.57;4.70;;;13.50;99.90;;;;;;5093170;28;20247;-78
2022/10/29 06:12:24;;;;;;;12.40;5.47;;;13.50;99.90;;;;;;5093143;28;20838;-79
2022/10/29 06:14:50;;;;;;;15.03;4.33;;;13.60;99.90;;;;;;5094225;28;20178;-78
2022/10/29 06:17:15;;;;;;;16.90;4.20;;;13.50;99.90;;;;;;5093967;28;20274;-77
2022/10/29 06:19:41;;;;;;;18.40;5.57;;;13.50;99.90;;;;;;5112081;28;20186;-78
2022/10/29 06:22:06;;;;;;;13.03;5.13;;;13.50;99.90;;;;;;5093898;28;20182;-79
2022/10/29 06:24:32;;;;;;;10.87;4.40;;;13.50;99.90;;;;;;5093479;28;20194;-77
2022/10/29 06:26:57;;;;;;;16.03;4.30;;;13.60;99.90;;;;;;5093569;28;20213;-78
2022/10/29 06:29:23;;;;;;;17.10;4.57;;;13.60;99.90;;;;;;5076338;28;20678;-78
2022/10/29 06:31:49;;;;;;;19.90;5.10;;;13.60;99.90;;;;;;5093743;28;20367;-78
2022/10/29 06:34:15;;;;;;;11.40;4.60;;;13.60;99.90;;;;;;5093412;28;20300;-78
2022/10/29 06:36:41;;;;;;;9.73;4.10;;;13.60;99.90;;;;;;5093916;28;20208;-79
2022/10/29 06:39:06;;;;;;;9.90;4.37;;;13.60;99.90;;;;;;5093316;28;20432;-78
2022/10/29 06:41:32;;;;;;;16.93;4.07;;;13.60;99.90;;;;;;5111689;28;20557;-79
2022/10/29 06:43:57;;;;;;;11.83;4.13;;;13.50;99.90;;;;;;5092961;28;20295;-78
2022/10/29 06:46:23;;;;;;;38.47;5.30;;;13.60;99.90;;;;;;5092880;28;20206;-78
2022/10/29 06:48:49;;;;;;;10.70;4.97;;;13.50;99.90;;;;;;5076021;28;20266;-78
2022/10/29 06:51:14;;;;;;;21.80;4.93;;;13.50;99.90;;;;;;5075590;28;20217;-78
2022/10/29 06:53:40;;;;;;;11.40;4.80;;;13.70;99.90;;;;;;5093162;28;20207;-78
2022/10/29 06:56:05;;;;;;;10.00;4.43;;;13.50;99.90;;;;;;5076222;28;20189;-78
2022/10/29 06:58:31;;;;;;;19.50;4.10;;;13.60;99.90;;;;;;5092586;28;20182;-78
2022/10/29 07:00:59;;;;;;;13.67;4.63;;;13.70;99.90;;;;;;5076320;28;20198;-79
2022/10/29 07:03:25;;;;;;;18.70;5.40;;;13.70;99.90;;;;;;5092802;28;20651;-78
2022/10/29 07:05:55;;;;;;;18.17;4.97;;;13.70;99.90;;;;;;5111714;28;20444;-77
2022/10/29 07:08:21;;;;;;;13.23;5.33;;;13.80;99.90;;;;;;5093922;28;20748;-77
2022/10/29 07:10:50;;;;;;;12.37;5.03;;;13.90;99.90;;;;;;5095701;28;20459;-78
2022/10/29 07:13:16;;;;;;;15.73;4.30;;;14.00;99.90;;;;;;5079745;28;20881;-78
2022/10/29 07:15:42;;;;;;;11.47;4.60;;;14.10;99.90;;;;;;5077269;28;20428;-78
2022/10/29 07:18:09;;;;;;;15.03;4.60;;;14.10;99.90;;;;;;5092604;28;20873;-78
2022/10/29 07:20:37;;;;;;;14.57;4.47;;;14.20;99.90;;;;;;5092670;28;20188;-77
2022/10/29 07:23:03;;;;;;;17.70;5.43;;;14.20;99.90;;;;;;5091681;28;20426;-78
2022/10/29 07:25:30;;;;;;;14.30;4.10;;;14.20;99.90;;;;;;5092231;28;20521;-78
2022/10/29 07:28:05;;;;;;;16.67;4.97;;;14.40;99.90;;;;;;5109406;28;20443;-78
2022/10/29 07:30:31;;;;;;;15.27;4.53;;;14.50;99.90;;;;;;5109247;28;21022;-79
2022/10/29 07:32:56;;;;;;;16.70;4.90;;;14.60;99.90;;;;;;5091352;28;20453;-78
2022/10/29 07:35:22;;;;;;;8.63;4.23;;;14.70;99.90;;;;;;5109641;28;20461;-77
2022/10/29 07:37:47;;;;;;;16.23;5.70;;;14.90;99.90;;;;;;5090958;28;20676;-78
2022/10/29 07:40:13;;;;;;;9.43;5.07;;;15.00;99.90;;;;;;5074060;28;20197;-78
2022/10/29 07:42:38;;;;;;;15.37;4.83;;;15.00;99.90;;;;;;5109520;28;20188;-78
2022/10/29 07:45:05;;;;;;;9.20;4.23;;;15.10;99.90;;;;;;5090991;28;20724;-78
2022/10/29 07:47:30;;;;;;;15.93;4.53;;;15.20;99.90;;;;;;5090892;28;20214;-79
2022/10/29 07:49:56;;;;;;;12.37;4.53;;;15.40;99.90;;;;;;5091275;28;20456;-80
2022/10/29 07:52:21;;;;;;;16.23;5.20;;;15.40;99.90;;;;;;5090842;28;20651;-78
2022/10/29 07:54:47;;;;;;;12.33;4.83;;;15.60;99.90;;;;;;5074049;28;20185;-78
2022/10/29 07:57:13;;;;;;;14.93;4.40;;;15.70;99.90;;;;;;5091208;28;20291;-78
2022/10/29 07:59:38;;;;;;;15.67;4.57;;;15.90;99.90;;;;;;5109226;28;20190;-78
2022/10/29 08:02:04;;;;;;;12.00;4.40;;;16.00;99.90;;;;;;5091053;28;20543;-79
2022/10/29 08:04:30;;;;;;;16.10;4.60;;;16.10;99.90;;;;;;5090145;28;20186;-78
2022/10/29 08:06:56;;;;;;;16.23;5.30;;;16.30;99.90;;;;;;5090530;28;20460;-79
2022/10/29 08:09:21;;;;;;;16.60;4.60;;;16.40;99.90;;;;;;5108836;28;20214;-79
2022/10/29 08:11:47;;;;;;;18.10;8.30;;;16.60;99.90;;;;;;5089722;28;20184;-79
2022/10/29 08:14:12;;;;;;;18.67;9.00;;;16.80;99.90;;;;;;5108394;28;20190;-79
2022/10/29 08:16:38;;;;;;;21.53;8.90;;;16.80;99.90;;;;;;5089745;28;20614;-79
2022/10/29 08:19:03;;;;;;;20.40;8.60;;;16.90;99.90;;;;;;5089696;28;20175;-78
2022/10/29 08:21:29;;;;;;;16.57;6.00;;;17.00;99.90;;;;;;5096137;28;20195;-80
2022/10/29 08:23:55;;;;;;;20.90;6.40;;;16.90;99.90;;;;;;5110498;28;20669;-79
2022/10/29 08:26:20;;;;;;;18.00;6.90;;;17.10;99.90;;;;;;5075421;28;20200;-79
2022/10/29 08:28:46;;;;;;;21.23;6.00;;;17.20;99.90;;;;;;5092165;28;20664;-80
2022/10/29 08:31:12;;;;;;;18.83;6.40;;;17.50;99.90;;;;;;5075064;28;20976;-80
2022/10/29 08:33:37;;;;;;;27.97;6.00;;;17.90;99.90;;;;;;5109181;28;20752;-78
2022/10/29 08:36:03;;;;;;;14.63;5.30;;;18.30;99.90;;;;;;5094803;28;20191;-80
2022/10/29 08:38:28;;;;;;;12.90;4.50;;;18.90;99.90;;;;;;5077126;28;20185;-80
2022/10/29 08:41:00;;;;;;;12.60;4.37;;;19.80;99.90;;;;;;5093803;28;20504;-80
2022/10/29 08:43:25;;;;;;;14.40;4.17;;;20.60;99.90;;;;;;5093563;28;20204;-80
2022/10/29 08:45:53;;;;;;;10.87;4.30;;;21.00;99.90;;;;;;5112230;28;20763;-79
2022/10/29 08:48:19;;;;;;;11.93;4.80;;;21.60;99.90;;;;;;5094528;28;20183;-79
2022/10/29 08:50:55;;;;;;;13.20;4.53;;;22.70;98.40;;;;;;5093857;28;20550;-79
2022/10/29 08:53:26;;;;;;;10.43;4.00;;;23.20;96.80;;;;;;5093712;28;20705;-81
2022/10/29 08:55:52;;;;;;;9.30;3.90;;;23.40;95.50;;;;;;5077069;28;20476;-80
2022/10/29 08:58:42;;;;;;;20.70;3.90;;;24.00;95.00;;;;;;5112018;28;20416;-83
2022/10/29 09:01:10;;;;;;;13.60;4.47;;;24.20;94.20;;;;;;5093079;28;20205;-84
2022/10/29 09:03:36;;;;;;;17.73;5.97;;;24.60;93.10;;;;;;5076291;28;20508;-82
2022/10/29 09:06:11;;;;;;;17.10;5.23;;;25.10;91.90;;;;;;5092883;28;20845;-82
2022/10/29 09:08:59;;;;;;;21.30;6.30;;;25.50;91.70;;;;;;5092925;28;20179;-84
2022/10/29 09:11:46;;;;;;;15.50;5.27;;;25.80;90.00;;;;;;5092746;28;21033;-86
2022/10/29 09:14:43;;;;;;;11.07;4.43;;;26.20;89.90;;;;;;5093160;28;20494;-85
2022/10/29 09:17:33;;;;;;;12.70;4.83;;;26.30;88.90;;;;;;5092495;28;20484;-84
2022/10/29 09:20:11;;;;;;;14.33;4.80;;;26.70;84.50;;;;;;5092582;28;20427;-85
2022/10/29 09:22:41;;;;;;;24.53;5.57;;;26.80;85.80;;;;;;5092728;28;20418;-85
2022/10/29 09:25:15;;;;;;;12.83;4.57;;;26.80;86.00;;;;;;5111561;28;20430;-86
2022/10/29 09:27:47;;;;;;;15.27;5.07;;;26.70;83.00;;;;;;5111249;28;21241;-86
2022/10/29 09:30:19;;;;;;;17.97;6.00;;;27.00;83.30;;;;;;5093215;28;21066;-86
2022/10/29 09:32:58;;;;;;;13.63;6.20;;;27.00;82.60;;;;;;5076646;28;20449;-86
2022/10/29 09:35:37;;;;;;;16.40;6.00;;;27.30;84.30;;;;;;5092713;28;20439;-85
2022/10/29 09:38:30;;;;;;;19.50;6.93;;;27.50;81.80;;;;;;5093174;28;20444;-85
2022/10/29 09:40:59;;;;;;;24.23;5.77;;;27.90;80.80;;;;;;5086529;28;20468;-86
2022/10/29 09:43:36;;;;;;;21.70;5.67;;;27.60;79.90;;;;;;5111378;28;20422;-86
2022/10/29 09:46:29;;;;;;;14.33;5.23;;;27.10;82.70;;;;;;5093056;28;20423;-87
2022/10/29 09:49:13;;;;;;;17.03;6.67;;;27.10;82.70;;;;;;5113010;28;20414;-88
2022/10/29 09:51:45;;;;;;;18.90;6.63;;;27.30;81.70;;;;;;5116290;28;20442;-86
2022/10/29 09:54:11;;;;;;;15.90;6.77;;;27.60;81.50;;;;;;5095157;28;20423;-79
2022/10/29 09:56:41;;;;;;;16.37;5.83;;;27.70;81.00;;;;;;5113019;28;20993;-81
2022/10/29 09:59:22;;;;;;;18.43;7.37;;;27.70;80.20;;;;;;5092729;28;20932;-80
2022/10/29 10:01:48;;;;;;;22.87;10.27;;;27.10;80.90;;;;;;5091590;28;20442;-80
2022/10/29 10:04:27;;;;;;;27.63;11.60;;;26.40;83.60;;;;;;5074984;28;20438;-81
2022/10/29 10:07:08;;;;;;;27.07;10.80;;;25.90;88.00;;;;;;5076664;28;20213;-82
2022/10/29 10:09:55;;;;;;;27.67;10.97;;;26.40;88.40;;;;;;5091867;28;20578;-81
2022/10/29 10:12:43;;;;;;;19.63;10.20;;;26.90;85.30;;;;;;5091633;28;20839;-80
2022/10/29 10:15:14;;;;;;;21.17;10.60;;;27.20;84.00;;;;;;5091408;28;20460;-79
2022/10/29 10:17:59;;;;;;;21.20;11.27;;;27.40;82.80;;;;;;5091758;28;20944;-80
2022/10/29 10:20:38;;;;;;;30.67;12.53;;;27.70;83.10;;;;;;5091463;28;20472;-80
2022/10/29 10:23:38;;;;;;;25.50;11.70;;;27.90;80.50;;;;;;5112158;28;20449;-79
2022/10/29 10:26:03;;;;;;;23.57;10.80;;;28.50;82.20;;;;;;5093028;28;20848;-79
2022/10/29 10:28:33;;;;;;;17.23;10.57;;;28.50;81.10;;;;;;5077763;28;20480;-79
2022/10/29 10:31:06;;;;;;;24.70;11.97;;;28.90;79.50;;;;;;5078140;28;20702;-80
2022/10/29 10:33:35;;;;;;;23.23;10.27;;;29.10;79.10;;;;;;5078070;28;20428;-78
2022/10/29 10:36:08;;;;;;;20.83;10.60;;;29.20;78.50;;;;;;5111491;28;20416;-78
2022/10/29 10:38:57;;;;;;;18.53;10.20;;;29.10;78.70;;;;;;5109925;28;20420;-75
2022/10/29 10:41:27;;;;;;;20.87;11.37;;;29.20;78.10;;;;;;5109944;28;20461;-79
2022/10/29 10:43:59;;;;;;;18.60;10.83;;;29.20;80.10;;;;;;5091454;28;20414;-78
2022/10/29 10:46:32;;;;;;;20.07;10.43;;;29.20;81.70;;;;;;5091862;28;20488;-79
2022/10/29 10:48:58;;;;;;;27.67;11.10;;;29.00;81.90;;;;;;5110431;28;20427;-79
2022/10/29 10:51:28;;;;;;;30.20;10.53;;;29.10;81.70;;;;;;5111624;28;20496;-78
2022/10/29 10:53:53;;;;;;;16.47;10.07;;;29.20;82.60;;;;;;5092022;28;20315;-79
2022/10/29 10:56:21;;;;;;;24.43;10.80;;;29.50;81.80;;;;;;5075952;28;20517;-80
2022/10/29 10:59:00;;;;;;;19.13;10.47;;;29.20;81.40;;;;;;5092882;28;20222;-79
2022/10/29 11:01:41;;;;;;;17.47;10.53;;;29.20;79.20;;;;;;5111516;28;20476;-80
2022/10/29 11:04:23;;;;;;;28.50;10.47;;;29.10;79.80;;;;;;5111565;28;20947;-79
2022/10/29 11:06:51;;;;;;;18.83;11.30;;;29.00;80.50;;;;;;5111676;28;20956;-80
2022/10/29 11:09:32;;;;;;;20.90;10.17;;;28.80;80.50;;;;;;5111499;28;20454;-80
2022/10/29 11:12:04;;;;;;;20.10;9.23;;;28.60;83.30;;;;;;5111702;28;20419;-80
2022/10/29 11:14:53;;;;;;;25.00;10.67;;;28.50;83.40;;;;;;5093066;28;20955;-79
2022/10/29 11:17:25;;;;;;;16.33;9.90;;;28.40;82.10;;;;;;5111881;28;20471;-79
2022/10/29 11:19:56;;;;;;;22.37;10.40;;;28.30;83.40;;;;;;5111170;28;20828;-80
2022/10/29 11:22:44;;;;;;;19.87;10.97;;;28.10;83.50;;;;;;5059675;28;20424;-80
2022/10/29 11:25:26;;;;;;;20.20;11.10;;;28.00;85.00;;;;;;5092522;28;20495;-81
2022/10/29 11:28:17;;;;;;;23.27;10.20;;;27.80;85.70;;;;;;5092370;28;20447;-81
2022/10/29 11:30:50;;;;;;;21.20;11.13;;;27.70;86.60;;;;;;5092386;28;20503;-80
2022/10/29 11:33:51;;;;;;;21.53;10.80;;;27.70;87.70;;;;;;5092265;28;20419;-81
2022/10/29 11:36:26;;;;;;;24.53;11.57;;;27.50;89.20;;;;;;5106758;28;20447;-80
2022/10/29 11:39:19;;;;;;;17.50;10.43;;;27.40;90.00;;;;;;5110354;28;20426;-80
2022/10/29 11:41:55;;;;;;;32.83;10.30;;;27.40;90.30;;;;;;5110524;28;20445;-80
2022/10/29 11:44:21;;;;;;;24.27;10.07;;;27.20;91.20;;;;;;5111074;28;20419;-79
2022/10/29 11:46:53;;;;;;;19.93;9.90;;;27.00;91.40;;;;;;5091702;28;20956;-79
2022/10/29 11:49:37;;;;;;;24.53;10.80;;;26.90;91.90;;;;;;5092437;28;21057;-79
2022/10/29 11:52:20;;;;;;;19.90;9.50;;;26.70;91.80;;;;;;5110764;28;21020;-79
2022/10/29 11:55:06;;;;;;;25.10;9.87;;;26.70;92.70;;;;;;5110460;28;20980;-79
2022/10/29 11:57:35;;;;;;;30.30;9.17;;;26.40;92.80;;;;;;5091798;28;20448;-79
2022/10/29 12:00:00;;;;;;;14.37;8.20;;;26.20;93.80;;;;;;5091530;28;20534;-79
2022/10/29 12:02:44;;;;;;;15.07;8.60;;;25.90;95.00;;;;;;5109686;28;20557;-79
2022/10/29 12:05:27;;;;;;;13.40;8.23;;;25.80;95.10;;;;;;5091430;28;20205;-77
2022/10/29 12:08:22;;;;;;;20.60;9.00;;;25.80;95.70;;;;;;5091325;28;20453;-79
2022/10/29 12:11:01;;;;;;;20.27;9.03;;;25.70;95.30;;;;;;5054128;28;20486;-79
2022/10/29 12:13:46;;;;;;;18.17;8.33;;;25.70;96.20;;;;;;5091325;28;20435;-79
2022/10/29 12:16:42;;;;;;;24.40;9.33;;;25.50;96.60;;;;;;5109475;28;20439;-79
2022/10/29 12:19:31;;;;;;;15.83;8.60;;;25.60;95.70;;;;;;5109846;28;20498;-79
2022/10/29 12:22:25;;;;;;;21.90;8.30;;;25.90;95.00;;;;;;5091453;28;20419;-81
2022/10/29 12:25:16;;;;;;;25.40;8.50;;;26.00;94.70;;;;;;5111362;28;20420;-79
2022/10/29 12:27:56;;;;;;;22.23;8.53;;;26.20;94.40;;;;;;5092045;28;20554;-79
2022/10/29 12:30:23;;;;;;;29.80;9.00;;;26.00;94.10;;;;;;5110266;28;20496;-79
2022/10/29 12:32:52;;;;;;;20.10;8.90;;;26.10;95.00;;;;;;5092232;28;20510;-79
2022/10/29 12:35:27;;;;;;;18.23;7.97;;;26.10;94.40;;;;;;5092567;28;20428;-77
2022/10/29 12:38:14;;;;;;;19.53;9.50;;;26.00;94.70;;;;;;5109275;28;21023;-80
2022/10/29 12:40:42;;;;;;;17.70;7.47;;;26.10;95.50;;;;;;5108734;28;20411;-79
2022/10/29 12:43:18;;;;;;;18.10;8.30;;;26.10;95.80;;;;;;5109260;28;20419;-79
2022/10/29 12:45:52;;;;;;;18.07;8.20;;;25.80;97.00;;;;;;5090803;28;20426;-80
2022/10/29 12:48:35;;;;;;;34.60;9.30;;;25.70;96.70;;;;;;5109032;28;20464;-79
2022/10/29 12:51:17;;;;;;;16.70;7.47;;;25.50;96.70;;;;;;5109029;28;20447;-80
2022/10/29 12:53:43;;;;;;;20.03;8.93;;;25.50;98.50;;;;;;5109373;28;20440;-80
2022/10/29 12:56:11;;;;;;;18.67;7.53;;;25.40;98.60;;;;;;5090209;28;20454;-79